sensor_id;sensor_type;location;lat;lon;timestamp;P1;durP1;ratioP1;P2;durP2;ratioP2
22705;SDS011;11520;51.198;4.468;2022-11-23T00:01:36;10.77;;;2.70;;
22705;SDS011;11520;51.198;4.468;2022-11-23T00:07:25;12.82;;;2.40;;
22705;SDS011;11520;51.198;4.468;2022-11-23T00:12:21;6.43;;;1.98;;
22705;SDS011;11520;51.198;4.468;2022-11-23T00:14:47;7.03;;;2.17;;
22705;SDS011;11520;51.198;4.468;2022-11-23T00:17:13;10.50;;;1.92;;
22705;SDS011;11520;51.198;4.468;2022-11-23T00:19:38;8.98;;;2.45;;
22705;SDS011;11520;51.198;4.468;2022-11-23T00:22:04;9.70;;;1.80;;
22705;SDS011;11520;51.198;4.468;2022-11-23T00:24:30;7.60;;;1.70;;
22705;SDS011;11520;51.198;4.468;2022-11-23T00:26:56;8.45;;;2.13;;
22705;SDS011;11520;51.198;4.468;2022-11-23T00:32:40;8.82;;;1.90;;
22705;SDS011;11520;51.198;4.468;2022-11-23T00:40:03;6.85;;;1.98;;
22705;SDS011;11520;51.198;4.468;2022-11-23T00:42:30;11.38;;;1.80;;
22705;SDS011;11520;51.198;4.468;2022-11-23T00:44:58;8.38;;;2.75;;
22705;SDS011;11520;51.198;4.468;2022-11-23T00:47:23;11.90;;;2.40;;
22705;SDS011;11520;51.198;4.468;2022-11-23T00:49:50;9.95;;;2.55;;
22705;SDS011;11520;51.198;4.468;2022-11-23T00:52:22;7.43;;;1.65;;
22705;SDS011;11520;51.198;4.468;2022-11-23T00:54:47;10.05;;;2.20;;
22705;SDS011;11520;51.198;4.468;2022-11-23T00:57:14;12.52;;;2.47;;
22705;SDS011;11520;51.198;4.468;2022-11-23T00:59:46;7.18;;;2.10;;
22705;SDS011;11520;51.198;4.468;2022-11-23T01:02:12;8.13;;;1.60;;
22705;SDS011;11520;51.198;4.468;2022-11-23T01:07:11;14.13;;;2.63;;
22705;SDS011;11520;51.198;4.468;2022-11-23T01:09:39;9.65;;;2.28;;
22705;SDS011;11520;51.198;4.468;2022-11-23T01:12:05;15.88;;;3.38;;
22705;SDS011;11520;51.198;4.468;2022-11-23T01:14:36;12.15;;;2.42;;
22705;SDS011;11520;51.198;4.468;2022-11-23T01:17:05;11.88;;;2.03;;
22705;SDS011;11520;51.198;4.468;2022-11-23T01:22:03;7.22;;;1.65;;
22705;SDS011;11520;51.198;4.468;2022-11-23T01:24:28;7.22;;;1.85;;
22705;SDS011;11520;51.198;4.468;2022-11-23T01:26:54;7.70;;;2.13;;
22705;SDS011;11520;51.198;4.468;2022-11-23T01:29:20;11.85;;;2.00;;
22705;SDS011;11520;51.198;4.468;2022-11-23T01:31:47;12.07;;;1.98;;
22705;SDS011;11520;51.198;4.468;2022-11-23T01:34:13;9.18;;;3.13;;
22705;SDS011;11520;51.198;4.468;2022-11-23T01:36:39;9.75;;;2.85;;
22705;SDS011;11520;51.198;4.468;2022-11-23T01:39:06;12.13;;;2.00;;
22705;SDS011;11520;51.198;4.468;2022-11-23T01:41:36;9.10;;;2.03;;
22705;SDS011;11520;51.198;4.468;2022-11-23T01:44:23;12.98;;;3.03;;
22705;SDS011;11520;51.198;4.468;2022-11-23T01:46:57;12.60;;;2.22;;
22705;SDS011;11520;51.198;4.468;2022-11-23T01:49:26;10.55;;;2.42;;
22705;SDS011;11520;51.198;4.468;2022-11-23T01:51:56;12.95;;;2.28;;
22705;SDS011;11520;51.198;4.468;2022-11-23T01:54:29;13.43;;;2.63;;
22705;SDS011;11520;51.198;4.468;2022-11-23T01:56:59;11.23;;;1.98;;
22705;SDS011;11520;51.198;4.468;2022-11-23T01:59:29;13.35;;;2.00;;
22705;SDS011;11520;51.198;4.468;2022-11-23T02:01:57;13.57;;;2.67;;
22705;SDS011;11520;51.198;4.468;2022-11-23T02:04:23;10.40;;;2.25;;
22705;SDS011;11520;51.198;4.468;2022-11-23T02:06:53;11.20;;;2.63;;
22705;SDS011;11520;51.198;4.468;2022-11-23T02:09:20;14.27;;;3.25;;
22705;SDS011;11520;51.198;4.468;2022-11-23T02:11:47;11.75;;;2.13;;
22705;SDS011;11520;51.198;4.468;2022-11-23T02:14:15;9.93;;;1.70;;
22705;SDS011;11520;51.198;4.468;2022-11-23T02:16:43;16.52;;;2.30;;
22705;SDS011;11520;51.198;4.468;2022-11-23T02:22:00;16.40;;;2.38;;
22705;SDS011;11520;51.198;4.468;2022-11-23T02:24:30;10.63;;;1.88;;
22705;SDS011;11520;51.198;4.468;2022-11-23T02:27:01;15.13;;;2.15;;
22705;SDS011;11520;51.198;4.468;2022-11-23T02:29:28;11.55;;;2.20;;
22705;SDS011;11520;51.198;4.468;2022-11-23T02:31:57;11.55;;;2.35;;
22705;SDS011;11520;51.198;4.468;2022-11-23T02:34:24;14.20;;;3.10;;
22705;SDS011;11520;51.198;4.468;2022-11-23T02:36:50;9.18;;;2.08;;
22705;SDS011;11520;51.198;4.468;2022-11-23T02:39:35;12.23;;;2.33;;
22705;SDS011;11520;51.198;4.468;2022-11-23T02:45:18;14.18;;;2.42;;
22705;SDS011;11520;51.198;4.468;2022-11-23T02:47:59;11.65;;;2.00;;
22705;SDS011;11520;51.198;4.468;2022-11-23T02:50:30;8.30;;;2.00;;
22705;SDS011;11520;51.198;4.468;2022-11-23T02:52:56;8.98;;;1.90;;
22705;SDS011;11520;51.198;4.468;2022-11-23T02:55:22;12.90;;;3.00;;
22705;SDS011;11520;51.198;4.468;2022-11-23T02:57:51;7.40;;;1.98;;
22705;SDS011;11520;51.198;4.468;2022-11-23T03:00:19;7.70;;;1.95;;
22705;SDS011;11520;51.198;4.468;2022-11-23T03:02:47;5.75;;;1.65;;
22705;SDS011;11520;51.198;4.468;2022-11-23T03:05:13;13.32;;;2.72;;
22705;SDS011;11520;51.198;4.468;2022-11-23T03:07:39;10.77;;;1.90;;
22705;SDS011;11520;51.198;4.468;2022-11-23T03:10:04;12.20;;;2.17;;
22705;SDS011;11520;51.198;4.468;2022-11-23T03:12:34;11.80;;;2.08;;
22705;SDS011;11520;51.198;4.468;2022-11-23T03:15:01;16.88;;;2.95;;
22705;SDS011;11520;51.198;4.468;2022-11-23T03:17:30;10.82;;;2.03;;
22705;SDS011;11520;51.198;4.468;2022-11-23T03:19:57;12.40;;;2.00;;
22705;SDS011;11520;51.198;4.468;2022-11-23T03:22:24;9.55;;;2.03;;
22705;SDS011;11520;51.198;4.468;2022-11-23T03:31:03;10.02;;;1.80;;
22705;SDS011;11520;51.198;4.468;2022-11-23T03:33:28;10.18;;;2.28;;
22705;SDS011;11520;51.198;4.468;2022-11-23T03:38:26;15.57;;;2.67;;
22705;SDS011;11520;51.198;4.468;2022-11-23T03:40:51;11.88;;;1.80;;
22705;SDS011;11520;51.198;4.468;2022-11-23T03:43:17;12.60;;;2.42;;
22705;SDS011;11520;51.198;4.468;2022-11-23T03:45:43;9.43;;;1.80;;
22705;SDS011;11520;51.198;4.468;2022-11-23T03:48:09;10.23;;;2.08;;
22705;SDS011;11520;51.198;4.468;2022-11-23T03:50:35;15.60;;;3.53;;
22705;SDS011;11520;51.198;4.468;2022-11-23T03:53:01;7.85;;;1.85;;
22705;SDS011;11520;51.198;4.468;2022-11-23T03:55:27;15.57;;;2.50;;
22705;SDS011;11520;51.198;4.468;2022-11-23T03:57:53;14.43;;;2.42;;
22705;SDS011;11520;51.198;4.468;2022-11-23T04:00:24;13.35;;;2.25;;
22705;SDS011;11520;51.198;4.468;2022-11-23T04:02:54;17.92;;;2.45;;
22705;SDS011;11520;51.198;4.468;2022-11-23T04:05:20;12.75;;;3.55;;
22705;SDS011;11520;51.198;4.468;2022-11-23T04:07:48;15.07;;;2.05;;
22705;SDS011;11520;51.198;4.468;2022-11-23T04:10:17;8.68;;;2.30;;
22705;SDS011;11520;51.198;4.468;2022-11-23T04:12:43;10.43;;;2.15;;
22705;SDS011;11520;51.198;4.468;2022-11-23T04:15:09;14.10;;;2.40;;
22705;SDS011;11520;51.198;4.468;2022-11-23T04:17:36;11.32;;;2.00;;
22705;SDS011;11520;51.198;4.468;2022-11-23T04:20:10;13.13;;;2.55;;
22705;SDS011;11520;51.198;4.468;2022-11-23T04:22:37;11.63;;;2.25;;
22705;SDS011;11520;51.198;4.468;2022-11-23T04:25:03;15.65;;;2.45;;
22705;SDS011;11520;51.198;4.468;2022-11-23T04:27:29;10.75;;;2.17;;
22705;SDS011;11520;51.198;4.468;2022-11-23T04:29:57;14.63;;;2.60;;
22705;SDS011;11520;51.198;4.468;2022-11-23T04:32:23;24.88;;;4.60;;
22705;SDS011;11520;51.198;4.468;2022-11-23T04:34:50;11.77;;;2.05;;
22705;SDS011;11520;51.198;4.468;2022-11-23T04:37:16;15.50;;;2.17;;
22705;SDS011;11520;51.198;4.468;2022-11-23T04:39:42;17.13;;;2.20;;
22705;SDS011;11520;51.198;4.468;2022-11-23T04:42:10;8.20;;;2.03;;
22705;SDS011;11520;51.198;4.468;2022-11-23T04:44:36;11.05;;;2.22;;
22705;SDS011;11520;51.198;4.468;2022-11-23T04:49:30;11.20;;;2.45;;
22705;SDS011;11520;51.198;4.468;2022-11-23T04:51:57;14.32;;;2.25;;
22705;SDS011;11520;51.198;4.468;2022-11-23T04:54:22;7.32;;;2.10;;
22705;SDS011;11520;51.198;4.468;2022-11-23T04:56:51;16.17;;;2.75;;
22705;SDS011;11520;51.198;4.468;2022-11-23T05:08:35;11.93;;;2.65;;
22705;SDS011;11520;51.198;4.468;2022-11-23T05:11:02;11.40;;;2.28;;
22705;SDS011;11520;51.198;4.468;2022-11-23T05:13:28;17.73;;;2.58;;
22705;SDS011;11520;51.198;4.468;2022-11-23T05:15:53;20.90;;;3.08;;
22705;SDS011;11520;51.198;4.468;2022-11-23T05:18:21;11.95;;;2.20;;
22705;SDS011;11520;51.198;4.468;2022-11-23T05:20:49;11.88;;;2.05;;
22705;SDS011;11520;51.198;4.468;2022-11-23T05:23:15;14.93;;;2.88;;
22705;SDS011;11520;51.198;4.468;2022-11-23T05:25:41;18.80;;;3.05;;
22705;SDS011;11520;51.198;4.468;2022-11-23T05:28:14;14.32;;;2.67;;
22705;SDS011;11520;51.198;4.468;2022-11-23T05:30:42;15.95;;;2.80;;
22705;SDS011;11520;51.198;4.468;2022-11-23T05:33:11;13.65;;;3.33;;
22705;SDS011;11520;51.198;4.468;2022-11-23T05:35:38;12.68;;;2.55;;
22705;SDS011;11520;51.198;4.468;2022-11-23T05:40:37;16.08;;;2.53;;
22705;SDS011;11520;51.198;4.468;2022-11-23T05:43:03;17.83;;;2.50;;
22705;SDS011;11520;51.198;4.468;2022-11-23T05:48:26;15.95;;;2.67;;
22705;SDS011;11520;51.198;4.468;2022-11-23T05:50:53;15.32;;;3.95;;
22705;SDS011;11520;51.198;4.468;2022-11-23T05:53:19;17.42;;;3.30;;
22705;SDS011;11520;51.198;4.468;2022-11-23T05:55:46;11.88;;;2.67;;
22705;SDS011;11520;51.198;4.468;2022-11-23T05:58:13;15.23;;;2.60;;
22705;SDS011;11520;51.198;4.468;2022-11-23T06:00:39;11.40;;;2.90;;
22705;SDS011;11520;51.198;4.468;2022-11-23T06:03:07;25.00;;;3.17;;
22705;SDS011;11520;51.198;4.468;2022-11-23T06:05:35;17.83;;;3.63;;
22705;SDS011;11520;51.198;4.468;2022-11-23T06:08:02;15.32;;;2.85;;
22705;SDS011;11520;51.198;4.468;2022-11-23T06:10:28;15.02;;;2.53;;
22705;SDS011;11520;51.198;4.468;2022-11-23T06:13:00;11.63;;;2.83;;
22705;SDS011;11520;51.198;4.468;2022-11-23T06:15:28;15.13;;;3.10;;
22705;SDS011;11520;51.198;4.468;2022-11-23T06:18:02;17.92;;;3.90;;
22705;SDS011;11520;51.198;4.468;2022-11-23T06:20:28;17.27;;;2.45;;
22705;SDS011;11520;51.198;4.468;2022-11-23T06:22:54;18.25;;;2.72;;
22705;SDS011;11520;51.198;4.468;2022-11-23T06:25:23;17.15;;;3.10;;
22705;SDS011;11520;51.198;4.468;2022-11-23T06:27:54;16.95;;;3.20;;
22705;SDS011;11520;51.198;4.468;2022-11-23T06:30:22;17.80;;;2.95;;
22705;SDS011;11520;51.198;4.468;2022-11-23T06:32:52;12.02;;;2.65;;
22705;SDS011;11520;51.198;4.468;2022-11-23T06:35:20;16.35;;;3.08;;
22705;SDS011;11520;51.198;4.468;2022-11-23T06:37:48;20.33;;;2.97;;
22705;SDS011;11520;51.198;4.468;2022-11-23T06:40:16;14.23;;;2.80;;
22705;SDS011;11520;51.198;4.468;2022-11-23T06:42:45;19.00;;;4.05;;
22705;SDS011;11520;51.198;4.468;2022-11-23T06:45:13;13.75;;;2.53;;
22705;SDS011;11520;51.198;4.468;2022-11-23T06:47:39;13.85;;;2.85;;
22705;SDS011;11520;51.198;4.468;2022-11-23T06:50:06;13.82;;;3.47;;
22705;SDS011;11520;51.198;4.468;2022-11-23T06:52:34;11.43;;;2.88;;
22705;SDS011;11520;51.198;4.468;2022-11-23T06:54:59;15.10;;;2.78;;
22705;SDS011;11520;51.198;4.468;2022-11-23T06:57:28;15.52;;;2.08;;
22705;SDS011;11520;51.198;4.468;2022-11-23T06:59:54;12.45;;;2.83;;
22705;SDS011;11520;51.198;4.468;2022-11-23T07:02:19;14.50;;;3.78;;
22705;SDS011;11520;51.198;4.468;2022-11-23T07:04:49;16.15;;;3.25;;
22705;SDS011;11520;51.198;4.468;2022-11-23T07:07:24;18.35;;;3.05;;
22705;SDS011;11520;51.198;4.468;2022-11-23T07:09:51;9.15;;;2.58;;
22705;SDS011;11520;51.198;4.468;2022-11-23T07:12:16;11.40;;;2.50;;
22705;SDS011;11520;51.198;4.468;2022-11-23T07:14:42;16.05;;;2.58;;
22705;SDS011;11520;51.198;4.468;2022-11-23T07:17:07;11.63;;;2.85;;
22705;SDS011;11520;51.198;4.468;2022-11-23T07:19:33;12.50;;;2.28;;
22705;SDS011;11520;51.198;4.468;2022-11-23T07:22:00;16.58;;;2.97;;
22705;SDS011;11520;51.198;4.468;2022-11-23T07:24:30;17.60;;;3.08;;
22705;SDS011;11520;51.198;4.468;2022-11-23T07:26:55;12.93;;;2.33;;
22705;SDS011;11520;51.198;4.468;2022-11-23T07:29:21;13.57;;;2.97;;
22705;SDS011;11520;51.198;4.468;2022-11-23T07:31:48;15.70;;;2.95;;
22705;SDS011;11520;51.198;4.468;2022-11-23T07:34:13;19.00;;;2.88;;
22705;SDS011;11520;51.198;4.468;2022-11-23T07:36:39;16.77;;;2.60;;
22705;SDS011;11520;51.198;4.468;2022-11-23T07:39:05;14.63;;;2.88;;
22705;SDS011;11520;51.198;4.468;2022-11-23T07:41:31;18.80;;;2.80;;
22705;SDS011;11520;51.198;4.468;2022-11-23T07:43:58;15.38;;;2.80;;
22705;SDS011;11520;51.198;4.468;2022-11-23T07:46:24;10.98;;;2.65;;
22705;SDS011;11520;51.198;4.468;2022-11-23T07:48:50;13.85;;;3.05;;
22705;SDS011;11520;51.198;4.468;2022-11-23T07:51:18;15.75;;;3.03;;
22705;SDS011;11520;51.198;4.468;2022-11-23T07:53:44;15.25;;;2.40;;
22705;SDS011;11520;51.198;4.468;2022-11-23T07:56:10;12.80;;;2.13;;
22705;SDS011;11520;51.198;4.468;2022-11-23T07:58:36;10.35;;;2.83;;
22705;SDS011;11520;51.198;4.468;2022-11-23T08:01:01;17.67;;;2.97;;
22705;SDS011;11520;51.198;4.468;2022-11-23T08:03:27;17.33;;;2.50;;
22705;SDS011;11520;51.198;4.468;2022-11-23T08:08:21;16.17;;;2.78;;
22705;SDS011;11520;51.198;4.468;2022-11-23T08:10:47;10.48;;;2.30;;
22705;SDS011;11520;51.198;4.468;2022-11-23T08:13:12;11.43;;;2.90;;
22705;SDS011;11520;51.198;4.468;2022-11-23T08:15:38;12.98;;;2.72;;
22705;SDS011;11520;51.198;4.468;2022-11-23T08:18:04;13.60;;;2.55;;
22705;SDS011;11520;51.198;4.468;2022-11-23T08:20:29;17.92;;;3.35;;
22705;SDS011;11520;51.198;4.468;2022-11-23T08:22:56;13.10;;;2.40;;
22705;SDS011;11520;51.198;4.468;2022-11-23T08:25:23;15.93;;;3.30;;
22705;SDS011;11520;51.198;4.468;2022-11-23T08:27:57;12.05;;;3.30;;
22705;SDS011;11520;51.198;4.468;2022-11-23T08:30:26;15.35;;;3.97;;
22705;SDS011;11520;51.198;4.468;2022-11-23T08:32:53;18.92;;;3.83;;
22705;SDS011;11520;51.198;4.468;2022-11-23T08:35:18;21.48;;;3.47;;
22705;SDS011;11520;51.198;4.468;2022-11-23T08:37:44;17.42;;;3.38;;
22705;SDS011;11520;51.198;4.468;2022-11-23T08:40:10;10.75;;;3.08;;
22705;SDS011;11520;51.198;4.468;2022-11-23T08:42:38;17.75;;;3.80;;
22705;SDS011;11520;51.198;4.468;2022-11-23T08:45:05;14.52;;;2.75;;
22705;SDS011;11520;51.198;4.468;2022-11-23T08:47:32;14.18;;;2.65;;
22705;SDS011;11520;51.198;4.468;2022-11-23T08:49:59;10.95;;;2.45;;
22705;SDS011;11520;51.198;4.468;2022-11-23T08:52:26;16.23;;;3.20;;
22705;SDS011;11520;51.198;4.468;2022-11-23T08:54:53;16.70;;;3.70;;
22705;SDS011;11520;51.198;4.468;2022-11-23T08:57:21;15.73;;;2.63;;
22705;SDS011;11520;51.198;4.468;2022-11-23T08:59:46;8.90;;;2.53;;
22705;SDS011;11520;51.198;4.468;2022-11-23T09:02:13;12.20;;;2.53;;
22705;SDS011;11520;51.198;4.468;2022-11-23T09:04:39;10.32;;;3.45;;
22705;SDS011;11520;51.198;4.468;2022-11-23T09:07:05;12.77;;;2.92;;
22705;SDS011;11520;51.198;4.468;2022-11-23T09:09:31;15.30;;;2.90;;
22705;SDS011;11520;51.198;4.468;2022-11-23T09:11:58;16.15;;;3.00;;
22705;SDS011;11520;51.198;4.468;2022-11-23T09:14:24;10.75;;;2.92;;
22705;SDS011;11520;51.198;4.468;2022-11-23T09:16:51;7.22;;;2.28;;
22705;SDS011;11520;51.198;4.468;2022-11-23T09:19:17;13.07;;;2.92;;
22705;SDS011;11520;51.198;4.468;2022-11-23T09:21:44;9.45;;;2.42;;
22705;SDS011;11520;51.198;4.468;2022-11-23T09:24:10;9.48;;;2.38;;
22705;SDS011;11520;51.198;4.468;2022-11-23T09:26:36;13.02;;;3.10;;
22705;SDS011;11520;51.198;4.468;2022-11-23T09:29:06;13.85;;;2.40;;
22705;SDS011;11520;51.198;4.468;2022-11-23T09:31:32;12.50;;;2.65;;
22705;SDS011;11520;51.198;4.468;2022-11-23T09:33:59;12.60;;;2.30;;
22705;SDS011;11520;51.198;4.468;2022-11-23T09:36:25;9.57;;;2.75;;
22705;SDS011;11520;51.198;4.468;2022-11-23T09:38:50;11.45;;;2.28;;
22705;SDS011;11520;51.198;4.468;2022-11-23T09:50:08;15.60;;;2.78;;
22705;SDS011;11520;51.198;4.468;2022-11-23T09:52:41;9.13;;;2.40;;
22705;SDS011;11520;51.198;4.468;2022-11-23T09:55:21;11.40;;;2.60;;
22705;SDS011;11520;51.198;4.468;2022-11-23T09:57:58;11.27;;;2.60;;
22705;SDS011;11520;51.198;4.468;2022-11-23T10:00:27;9.48;;;2.53;;
22705;SDS011;11520;51.198;4.468;2022-11-23T10:02:59;10.82;;;2.80;;
22705;SDS011;11520;51.198;4.468;2022-11-23T10:05:25;8.75;;;2.88;;
22705;SDS011;11520;51.198;4.468;2022-11-23T10:10:44;11.50;;;2.10;;
22705;SDS011;11520;51.198;4.468;2022-11-23T10:16:07;8.68;;;2.22;;
22705;SDS011;11520;51.198;4.468;2022-11-23T10:19:04;8.05;;;1.88;;
22705;SDS011;11520;51.198;4.468;2022-11-23T10:21:56;8.02;;;2.15;;
22705;SDS011;11520;51.198;4.468;2022-11-23T10:24:53;8.63;;;2.35;;
22705;SDS011;11520;51.198;4.468;2022-11-23T10:27:20;11.25;;;2.30;;
22705;SDS011;11520;51.198;4.468;2022-11-23T10:29:49;9.85;;;2.55;;
22705;SDS011;11520;51.198;4.468;2022-11-23T10:32:28;5.60;;;2.00;;
22705;SDS011;11520;51.198;4.468;2022-11-23T10:35:10;7.53;;;1.77;;
22705;SDS011;11520;51.198;4.468;2022-11-23T10:38:16;8.65;;;1.95;;
22705;SDS011;11520;51.198;4.468;2022-11-23T10:46:49;8.32;;;1.90;;
22705;SDS011;11520;51.198;4.468;2022-11-23T10:54:35;8.75;;;1.65;;
22705;SDS011;11520;51.198;4.468;2022-11-23T11:02:29;4.28;;;1.20;;
22705;SDS011;11520;51.198;4.468;2022-11-23T11:07:59;4.82;;;1.20;;
22705;SDS011;11520;51.198;4.468;2022-11-23T11:10:32;5.95;;;1.38;;
22705;SDS011;11520;51.198;4.468;2022-11-23T11:12:59;7.88;;;1.27;;
22705;SDS011;11520;51.198;4.468;2022-11-23T11:15:25;4.75;;;1.45;;
22705;SDS011;11520;51.198;4.468;2022-11-23T11:17:53;3.08;;;1.10;;
22705;SDS011;11520;51.198;4.468;2022-11-23T11:20:28;4.53;;;1.60;;
22705;SDS011;11520;51.198;4.468;2022-11-23T11:23:03;14.40;;;1.65;;
22705;SDS011;11520;51.198;4.468;2022-11-23T11:25:40;6.55;;;0.90;;
22705;SDS011;11520;51.198;4.468;2022-11-23T11:33:37;7.22;;;1.30;;
22705;SDS011;11520;51.198;4.468;2022-11-23T11:36:09;4.47;;;1.35;;
22705;SDS011;11520;51.198;4.468;2022-11-23T11:38:38;9.27;;;1.40;;
22705;SDS011;11520;51.198;4.468;2022-11-23T11:41:08;6.72;;;1.40;;
22705;SDS011;11520;51.198;4.468;2022-11-23T11:43:41;12.25;;;2.45;;
22705;SDS011;11520;51.198;4.468;2022-11-23T11:46:28;5.72;;;1.73;;
22705;SDS011;11520;51.198;4.468;2022-11-23T11:49:06;4.85;;;1.23;;
22705;SDS011;11520;51.198;4.468;2022-11-23T11:51:36;5.00;;;1.20;;
22705;SDS011;11520;51.198;4.468;2022-11-23T11:59:27;7.55;;;1.40;;
22705;SDS011;11520;51.198;4.468;2022-11-23T12:07:36;4.32;;;1.52;;
22705;SDS011;11520;51.198;4.468;2022-11-23T12:10:25;5.45;;;1.35;;
22705;SDS011;11520;51.198;4.468;2022-11-23T12:12:57;3.38;;;1.23;;
22705;SDS011;11520;51.198;4.468;2022-11-23T12:15:23;6.38;;;1.65;;
22705;SDS011;11520;51.198;4.468;2022-11-23T12:18:32;6.30;;;1.50;;
22705;SDS011;11520;51.198;4.468;2022-11-23T12:20:59;6.40;;;1.33;;
22705;SDS011;11520;51.198;4.468;2022-11-23T12:23:53;6.85;;;1.92;;
22705;SDS011;11520;51.198;4.468;2022-11-23T12:29:52;5.72;;;1.55;;
22705;SDS011;11520;51.198;4.468;2022-11-23T12:32:26;6.40;;;1.63;;
22705;SDS011;11520;51.198;4.468;2022-11-23T12:46:06;9.15;;;2.00;;
22705;SDS011;11520;51.198;4.468;2022-11-23T12:56:53;10.65;;;1.58;;
22705;SDS011;11520;51.198;4.468;2022-11-23T13:00:05;7.47;;;1.00;;
22705;SDS011;11520;51.198;4.468;2022-11-23T13:16:43;5.10;;;1.83;;
22705;SDS011;11520;51.198;4.468;2022-11-23T13:19:39;6.00;;;2.15;;
22705;SDS011;11520;51.198;4.468;2022-11-23T13:22:39;11.27;;;2.40;;
22705;SDS011;11520;51.198;4.468;2022-11-23T13:25:17;11.32;;;1.85;;
22705;SDS011;11520;51.198;4.468;2022-11-23T13:35:54;7.35;;;2.17;;
22705;SDS011;11520;51.198;4.468;2022-11-23T13:38:22;6.70;;;1.67;;
22705;SDS011;11520;51.198;4.468;2022-11-23T13:40:50;8.63;;;1.98;;
22705;SDS011;11520;51.198;4.468;2022-11-23T13:43:24;6.28;;;1.80;;
22705;SDS011;11520;51.198;4.468;2022-11-23T13:49:27;7.47;;;1.75;;
22705;SDS011;11520;51.198;4.468;2022-11-23T13:52:04;10.02;;;1.58;;
22705;SDS011;11520;51.198;4.468;2022-11-23T13:55:04;6.13;;;1.75;;
22705;SDS011;11520;51.198;4.468;2022-11-23T13:57:37;5.95;;;1.70;;
22705;SDS011;11520;51.198;4.468;2022-11-23T14:06:00;10.63;;;2.38;;
22705;SDS011;11520;51.198;4.468;2022-11-23T14:08:27;5.95;;;2.33;;
22705;SDS011;11520;51.198;4.468;2022-11-23T14:10:55;5.82;;;2.28;;
22705;SDS011;11520;51.198;4.468;2022-11-23T14:13:31;3.92;;;1.55;;
22705;SDS011;11520;51.198;4.468;2022-11-23T14:16:27;6.25;;;1.55;;
22705;SDS011;11520;51.198;4.468;2022-11-23T14:22:05;4.38;;;2.15;;
22705;SDS011;11520;51.198;4.468;2022-11-23T14:30:02;3.88;;;1.25;;
22705;SDS011;11520;51.198;4.468;2022-11-23T14:35:39;3.05;;;1.95;;
22705;SDS011;11520;51.198;4.468;2022-11-23T14:41:26;3.65;;;1.55;;
22705;SDS011;11520;51.198;4.468;2022-11-23T14:43:56;3.10;;;1.40;;
22705;SDS011;11520;51.198;4.468;2022-11-23T14:46:24;3.40;;;1.75;;
22705;SDS011;11520;51.198;4.468;2022-11-23T14:48:50;3.47;;;1.88;;
22705;SDS011;11520;51.198;4.468;2022-11-23T14:51:23;3.10;;;1.45;;
22705;SDS011;11520;51.198;4.468;2022-11-23T14:53:53;5.80;;;1.88;;
22705;SDS011;11520;51.198;4.468;2022-11-23T14:56:28;9.95;;;1.58;;
22705;SDS011;11520;51.198;4.468;2022-11-23T14:59:26;3.00;;;1.45;;
22705;SDS011;11520;51.198;4.468;2022-11-23T15:04:33;4.93;;;2.20;;
22705;SDS011;11520;51.198;4.468;2022-11-23T15:07:17;4.10;;;2.25;;
22705;SDS011;11520;51.198;4.468;2022-11-23T15:12:51;3.60;;;1.52;;
22705;SDS011;11520;51.198;4.468;2022-11-23T15:15:45;3.53;;;2.08;;
22705;SDS011;11520;51.198;4.468;2022-11-23T15:18:24;6.47;;;2.58;;
22705;SDS011;11520;51.198;4.468;2022-11-23T15:21:02;5.30;;;1.77;;
22705;SDS011;11520;51.198;4.468;2022-11-23T15:23:35;5.85;;;1.58;;
22705;SDS011;11520;51.198;4.468;2022-11-23T15:26:10;2.95;;;1.45;;
22705;SDS011;11520;51.198;4.468;2022-11-23T15:28:38;6.55;;;2.72;;
22705;SDS011;11520;51.198;4.468;2022-11-23T15:31:17;4.90;;;1.92;;
22705;SDS011;11520;51.198;4.468;2022-11-23T15:36:15;3.80;;;1.55;;
22705;SDS011;11520;51.198;4.468;2022-11-23T15:38:47;5.25;;;2.08;;
22705;SDS011;11520;51.198;4.468;2022-11-23T15:41:17;2.30;;;1.70;;
22705;SDS011;11520;51.198;4.468;2022-11-23T15:43:53;6.47;;;2.08;;
22705;SDS011;11520;51.198;4.468;2022-11-23T15:46:21;7.85;;;2.17;;
22705;SDS011;11520;51.198;4.468;2022-11-23T15:48:49;4.05;;;1.98;;
22705;SDS011;11520;51.198;4.468;2022-11-23T15:51:23;7.97;;;2.17;;
22705;SDS011;11520;51.198;4.468;2022-11-23T15:54:03;6.78;;;1.85;;
22705;SDS011;11520;51.198;4.468;2022-11-23T15:56:43;5.78;;;1.80;;
22705;SDS011;11520;51.198;4.468;2022-11-23T16:02:09;5.95;;;2.17;;
22705;SDS011;11520;51.198;4.468;2022-11-23T16:04:44;4.03;;;2.08;;
22705;SDS011;11520;51.198;4.468;2022-11-23T16:07:22;7.07;;;1.90;;
22705;SDS011;11520;51.198;4.468;2022-11-23T16:12:34;6.85;;;2.40;;
22705;SDS011;11520;51.198;4.468;2022-11-23T16:20:47;6.88;;;2.63;;
22705;SDS011;11520;51.198;4.468;2022-11-23T16:23:49;5.03;;;2.88;;
22705;SDS011;11520;51.198;4.468;2022-11-23T16:26:50;5.13;;;2.70;;
22705;SDS011;11520;51.198;4.468;2022-11-23T16:29:32;10.02;;;2.40;;
22705;SDS011;11520;51.198;4.468;2022-11-23T16:32:19;7.95;;;3.20;;
22705;SDS011;11520;51.198;4.468;2022-11-23T16:35:26;9.20;;;2.80;;
22705;SDS011;11520;51.198;4.468;2022-11-23T16:37:58;5.30;;;3.22;;
22705;SDS011;11520;51.198;4.468;2022-11-23T16:40:24;7.10;;;3.20;;
22705;SDS011;11520;51.198;4.468;2022-11-23T16:42:58;7.97;;;3.03;;
22705;SDS011;11520;51.198;4.468;2022-11-23T16:45:34;8.32;;;2.80;;
22705;SDS011;11520;51.198;4.468;2022-11-23T16:48:04;5.93;;;3.10;;
22705;SDS011;11520;51.198;4.468;2022-11-23T16:50:52;10.27;;;3.30;;
22705;SDS011;11520;51.198;4.468;2022-11-23T16:53:19;8.35;;;3.70;;
22705;SDS011;11520;51.198;4.468;2022-11-23T16:55:45;8.93;;;3.72;;
22705;SDS011;11520;51.198;4.468;2022-11-23T16:58:18;10.80;;;4.18;;
22705;SDS011;11520;51.198;4.468;2022-11-23T17:00:44;12.00;;;4.07;;
22705;SDS011;11520;51.198;4.468;2022-11-23T17:03:13;12.60;;;4.47;;
22705;SDS011;11520;51.198;4.468;2022-11-23T17:05:48;12.82;;;4.57;;
22705;SDS011;11520;51.198;4.468;2022-11-23T17:08:15;7.85;;;3.97;;
22705;SDS011;11520;51.198;4.468;2022-11-23T17:10:46;9.10;;;3.92;;
22705;SDS011;11520;51.198;4.468;2022-11-23T17:16:09;10.93;;;5.40;;
22705;SDS011;11520;51.198;4.468;2022-11-23T17:21:40;10.90;;;4.07;;
22705;SDS011;11520;51.198;4.468;2022-11-23T17:24:06;11.50;;;4.25;;
22705;SDS011;11520;51.198;4.468;2022-11-23T17:26:35;9.55;;;3.90;;
22705;SDS011;11520;51.198;4.468;2022-11-23T17:29:15;9.52;;;3.85;;
22705;SDS011;11520;51.198;4.468;2022-11-23T17:31:44;10.32;;;3.53;;
22705;SDS011;11520;51.198;4.468;2022-11-23T17:34:13;12.80;;;5.00;;
22705;SDS011;11520;51.198;4.468;2022-11-23T17:36:41;8.48;;;4.50;;
22705;SDS011;11520;51.198;4.468;2022-11-23T17:39:20;13.52;;;5.88;;
22705;SDS011;11520;51.198;4.468;2022-11-23T17:41:51;8.65;;;4.80;;
22705;SDS011;11520;51.198;4.468;2022-11-23T17:44:20;9.48;;;4.22;;
22705;SDS011;11520;51.198;4.468;2022-11-23T17:46:48;11.55;;;4.60;;
22705;SDS011;11520;51.198;4.468;2022-11-23T17:51:48;7.05;;;4.68;;
22705;SDS011;11520;51.198;4.468;2022-11-23T17:54:14;13.10;;;4.47;;
22705;SDS011;11520;51.198;4.468;2022-11-23T17:56:42;13.80;;;4.85;;
22705;SDS011;11520;51.198;4.468;2022-11-23T17:59:08;13.02;;;5.70;;
22705;SDS011;11520;51.198;4.468;2022-11-23T18:01:37;14.60;;;4.65;;
22705;SDS011;11520;51.198;4.468;2022-11-23T18:04:03;11.73;;;5.15;;
22705;SDS011;11520;51.198;4.468;2022-11-23T18:06:29;11.27;;;4.95;;
22705;SDS011;11520;51.198;4.468;2022-11-23T18:08:55;9.48;;;4.82;;
22705;SDS011;11520;51.198;4.468;2022-11-23T18:11:26;13.57;;;6.05;;
22705;SDS011;11520;51.198;4.468;2022-11-23T18:13:52;15.10;;;6.90;;
22705;SDS011;11520;51.198;4.468;2022-11-23T18:16:19;21.80;;;8.65;;
22705;SDS011;11520;51.198;4.468;2022-11-23T18:21:16;10.70;;;4.97;;
22705;SDS011;11520;51.198;4.468;2022-11-23T18:23:42;13.18;;;5.40;;